Time;durP1;ratioP1;P1;durP2;ratioP2;P2;SDS_P1;SDS_P2;PMS_P1;PMS_P2;Temp;Humidity;BMP_temperature;BMP_pressure;BME280_temperature;BME280_humidity;BME280_pressure;Samples;Min_cycle;Max_cycle;Signal;HPM_P1;HPM_P2
2023/10/08 07:42:19;;;;;;;1999.90;999.90;;;;;;;;;;6186333;22;20020;-79
2023/10/08 07:44:47;;;;;;;1999.90;999.90;;;;;;;;;;6212301;23;20009;-70
2023/10/08 07:47:14;;;;;;;1999.90;999.90;;;;;;;;;;6212501;23;20020;-73
2023/10/08 07:49:44;;;;;;;1999.90;999.90;;;;;;;;;;6213586;23;20011;-80
2023/10/08 07:52:15;;;;;;;1999.90;999.90;;;;;;;;;;6213813;23;20084;-75
2023/10/08 07:54:41;;;;;;;1999.90;999.90;;;;;;;;;;6213536;23;20063;-74
2023/10/08 07:57:11;;;;;;;1999.90;999.90;;;;;;;;;;6214071;23;19997;-72
2023/10/08 07:59:38;;;;;;;1999.90;999.90;;;;;;;;;;6213826;23;20000;-76
2023/10/08 08:02:11;;;;;;;1999.90;999.90;;;;;;;;;;6214771;23;20007;-81
2023/10/08 08:04:39;;;;;;;1999.90;999.90;;;;;;;;;;6214235;23;20516;-76
2023/10/08 08:07:06;;;;;;;1999.90;999.90;;;;;;;;;;6214427;23;20091;-80
2023/10/08 08:09:37;;;;;;;1999.90;999.90;;;;;;;;;;6188177;23;20012;-80
2023/10/08 08:12:07;;;;;;;1999.90;999.90;;;;;;;;;;6214386;23;20024;-74
2023/10/08 08:14:34;;;;;;;1999.90;999.90;;;;;;;;;;6213701;23;20004;-78
2023/10/08 08:17:13;;;;;;;1999.90;999.90;;;;;;;;;;6215266;23;20433;-83
2023/10/08 08:19:39;;;;;;;1999.90;999.90;;;;;;;;;;6215761;23;20001;-79
2023/10/08 08:22:05;;;;;;;1999.90;999.90;;;;;;;;;;6214692;23;20436;-81
2023/10/08 08:24:35;;;;;;;1999.90;999.90;;;;;;;;;;6214767;23;20005;-82
2023/10/08 08:27:10;;;;;;;1999.90;999.90;;;;;;;;;;6214959;23;20020;-76
2023/10/08 08:29:45;;;;;;;1999.90;999.90;;;;;;;;;;6187909;23;20008;-85
2023/10/08 08:32:15;;;;;;;1999.90;999.90;;;;;;;;;;6187748;23;20015;-77
2023/10/08 08:34:43;;;;;;;1999.90;999.90;;;;;;;;;;6215387;23;20029;-77
2023/10/08 08:37:11;;;;;;;1999.90;999.90;;;;;;;;;;6213753;23;20016;-72
2023/10/08 08:39:37;;;;;;;1999.90;999.90;;;;;;;;;;6216233;23;20005;-66
2023/10/08 08:42:07;;;;;;;1999.90;999.90;;;;;;;;;;6214910;23;20012;-69
2023/10/08 08:44:36;;;;;;;1999.90;999.90;;;;;;;;;;6183954;23;20013;-69
2023/10/08 08:47:06;;;;;;;1999.90;999.90;;;;;;;;;;6184661;23;20016;-72
2023/10/08 08:49:37;;;;;;;1999.90;999.90;;;;;;;;;;6184958;23;20005;-71
2023/10/08 08:52:04;;;;;;;1999.90;999.90;;;;;;;;;;6184072;23;20004;-71
2023/10/08 08:54:33;;;;;;;1999.90;999.90;;;;;;;;;;6184937;23;20365;-72
2023/10/08 08:57:04;;;;;;;1999.90;999.90;;;;;;;;;;6183623;23;20072;-72
2023/10/08 08:59:30;;;;;;;1999.90;999.90;;;;;;;;;;6183729;23;20012;-74
2023/10/08 09:01:58;;;;;;;1999.90;999.90;;;;;;;;;;6183854;23;20008;-74
2023/10/08 09:04:33;;;;;;;1999.90;999.90;;;;;;;;;;6183758;23;20005;-79
2023/10/08 09:07:03;;;;;;;1999.90;999.90;;;;;;;;;;6184118;23;20020;-81
2023/10/08 09:09:33;;;;;;;1999.90;999.90;;;;;;;;;;6184018;23;20453;-76
2023/10/08 09:12:00;;;;;;;1999.90;999.90;;;;;;;;;;6183633;23;20005;-72
2023/10/08 09:14:27;;;;;;;1999.90;999.90;;;;;;;;;;6184255;23;20001;-75
2023/10/08 09:16:57;;;;;;;1999.90;999.90;;;;;;;;;;6184544;23;20017;-79
2023/10/08 09:19:25;;;;;;;1999.90;999.90;;;;;;;;;;6184188;23;20326;-80
2023/10/08 09:22:01;;;;;;;1999.90;999.90;;;;;;;;;;6183645;23;20013;-80
2023/10/08 09:24:27;;;;;;;1999.90;999.90;;;;;;;;;;6183549;23;20005;-73
2023/10/08 09:26:53;;;;;;;1999.90;999.90;;;;;;;;;;6184376;23;20023;-77
2023/10/08 09:29:23;;;;;;;1999.90;999.90;;;;;;;;;;6184142;23;20112;-81
2023/10/08 09:31:55;;;;;;;1999.90;999.90;;;;;;;;;;6156785;23;20321;-76
2023/10/08 09:34:22;;;;;;;1999.90;999.90;;;;;;;;;;6184378;23;20092;-73
2023/10/08 09:36:48;;;;;;;1999.90;999.90;;;;;;;;;;6184343;23;20322;-73
2023/10/08 09:39:23;;;;;;;1999.90;999.90;;;;;;;;;;6183669;23;20072;-79
2023/10/08 09:41:50;;;;;;;1999.90;999.90;;;;;;;;;;6183521;23;20452;-78
2023/10/08 09:44:18;;;;;;;1999.90;999.90;;;;;;;;;;6183689;23;20013;-76
2023/10/08 09:46:46;;;;;;;1999.90;999.90;;;;;;;;;;6183157;23;20426;-72
2023/10/08 09:49:13;;;;;;;1999.90;999.90;;;;;;;;;;6183525;23;20100;-71
2023/10/08 09:51:41;;;;;;;1999.90;999.90;;;;;;;;;;6183537;23;20453;-75
2023/10/08 09:54:10;;;;;;;1999.90;999.90;;;;;;;;;;6183462;23;20059;-75
2023/10/08 09:56:36;;;;;;;1999.90;999.90;;;;;;;;;;6183304;23;20015;-73
2023/10/08 09:59:03;;;;;;;1999.90;999.90;;;;;;;;;;6183171;23;20067;-75
2023/10/08 10:01:31;;;;;;;1999.90;999.90;;;;;;;;;;6183123;23;20087;-77
2023/10/08 10:04:01;;;;;;;1999.90;999.90;;;;;;;;;;6183438;23;20028;-79
2023/10/08 10:06:27;;;;;;;1999.90;999.90;;;;;;;;;;6183351;23;20013;-80
2023/10/08 10:08:57;;;;;;;1999.90;999.90;;;;;;;;;;6182916;23;20001;-75
2023/10/08 10:11:26;;;;;;;1999.90;999.90;;;;;;;;;;6183410;23;20361;-78
2023/10/08 10:14:00;;;;;;;1999.90;999.90;;;;;;;;;;6182539;23;20036;-69
2023/10/08 10:16:27;;;;;;;1999.90;999.90;;;;;;;;;;6183115;23;20088;-84
2023/10/08 10:18:57;;;;;;;1999.90;999.90;;;;;;;;;;6182786;23;20092;-77
2023/10/08 10:21:30;;;;;;;1999.90;999.90;;;;;;;;;;6182873;23;20405;-79
2023/10/08 10:23:57;;;;;;;1999.90;999.90;;;;;;;;;;6182613;23;20031;-78
2023/10/08 10:26:23;;;;;;;1999.90;999.90;;;;;;;;;;6182865;23;20009;-77
2023/10/08 10:29:11;;;;;;;1999.90;999.90;;;;;;;;;;6183309;23;20012;-76
2023/10/08 10:31:46;;;;;;;1999.90;999.90;;;;;;;;;;6183189;23;20418;-66
2023/10/08 10:34:14;;;;;;;1999.90;999.90;;;;;;;;;;6182770;23;20505;-76
2023/10/08 10:36:41;;;;;;;1999.90;999.90;;;;;;;;;;6182923;23;20001;-80
2023/10/08 10:39:15;;;;;;;1999.90;999.90;;;;;;;;;;6183201;23;20084;-72
2023/10/08 10:41:44;;;;;;;1999.90;999.90;;;;;;;;;;6183314;23;20001;-78
2023/10/08 10:44:10;;;;;;;1999.90;999.90;;;;;;;;;;6182312;23;20040;-81
2023/10/08 10:46:41;;;;;;;1999.90;999.90;;;;;;;;;;6182832;23;20005;-78
2023/10/08 10:49:30;;;;;;;1999.90;999.90;;;;;;;;;;6183171;23;20425;-80
2023/10/08 10:51:57;;;;;;;1999.90;999.90;;;;;;;;;;6183111;23;20004;-78
2023/10/08 10:54:35;;;;;;;1999.90;999.90;;;;;;;;;;6183200;23;20009;-76
2023/10/08 10:57:17;;;;;;;1999.90;999.90;;;;;;;;;;6183176;23;20009;-75
2023/10/08 10:59:53;;;;;;;1999.90;999.90;;;;;;;;;;6183015;23;20005;-79
2023/10/08 11:02:30;;;;;;;1999.90;999.90;;;;;;;;;;6182785;23;20005;-74
2023/10/08 11:05:07;;;;;;;1999.90;999.90;;;;;;;;;;6183178;23;20072;-73
2023/10/08 11:07:33;;;;;;;1999.90;999.90;;;;;;;;;;6182577;23;20009;-77
2023/10/08 11:10:00;;;;;;;1999.90;999.90;;;;;;;;;;6182901;23;20001;-81
2023/10/08 11:12:42;;;;;;;1999.90;999.90;;;;;;;;;;6184494;23;20118;-73
2023/10/08 11:15:15;;;;;;;1999.90;999.90;;;;;;;;;;6183423;23;20020;-77
2023/10/08 11:17:42;;;;;;;1999.90;999.90;;;;;;;;;;6183563;23;20012;-76
2023/10/08 11:20:24;;;;;;;1999.90;999.90;;;;;;;;;;6185206;23;20065;-74
2023/10/08 11:22:53;;;;;;;;;;;;;;;;;;6184060;23;19997;-79
2023/10/08 11:25:27;;;;;;;1999.90;999.90;;;;;;;;;;6182578;23;19907;-77
2023/10/08 11:28:08;;;;;;;1999.90;999.90;;;;;;;;;;6185297;23;20095;-78
2023/10/08 11:30:35;;;;;;;1999.90;999.90;;;;;;;;;;6185856;23;20007;-79
2023/10/08 11:33:06;;;;;;;1999.90;999.90;;;;;;;;;;6186400;23;20083;-79
2023/10/08 11:35:33;;;;;;;1999.90;999.90;;;;;;;;;;6185911;23;20005;-76
2023/10/08 11:38:01;;;;;;;1999.90;999.90;;;;;;;;;;6185085;23;20005;-75
2023/10/08 11:43:15;;;;;;;1999.90;999.90;;;;;;;;;;6184746;23;20424;-76
2023/10/08 11:45:48;;;;;;;1999.90;999.90;;;;;;;;;;6184650;23;19993;-78
2023/10/08 11:48:17;;;;;;;1999.90;999.90;;;;;;;;;;6185087;23;20303;-75
2023/10/08 11:50:43;;;;;;;1999.90;999.90;;;;;;;;;;6185380;23;20005;-74
2023/10/08 11:53:11;;;;;;;1999.90;999.90;;;;;;;;;;6184708;23;20009;-69
2023/10/08 11:55:38;;;;;;;1999.90;999.90;;;;;;;;;;6184755;23;20106;-69
2023/10/08 11:58:11;;;;;;;1999.90;999.90;;;;;;;;;;6185519;23;20001;-66
2023/10/08 12:00:44;;;;;;;1999.90;999.90;;;;;;;;;;6158638;23;20009;-76
2023/10/08 12:03:11;;;;;;;1999.90;999.90;;;;;;;;;;6184955;23;20031;-69
2023/10/08 12:05:43;;;;;;;1999.90;999.90;;;;;;;;;;6185816;23;20251;-76
2023/10/08 12:08:11;;;;;;;1999.90;999.90;;;;;;;;;;6185650;23;20389;-74
2023/10/08 12:10:38;;;;;;;1999.90;999.90;;;;;;;;;;6183095;23;20012;-61
2023/10/08 12:13:05;;;;;;;1999.90;999.90;;;;;;;;;;6185017;23;20376;-75
2023/10/08 12:15:38;;;;;;;1999.90;999.90;;;;;;;;;;6184654;23;19997;-74
2023/10/08 12:18:24;;;;;;;1999.90;999.90;;;;;;;;;;6184250;23;20321;-73
2023/10/08 12:20:50;;;;;;;1999.90;999.90;;;;;;;;;;6162777;23;20009;-72
2023/10/08 12:23:25;;;;;;;1999.90;999.90;;;;;;;;;;6184014;23;20052;-73
2023/10/08 12:25:55;;;;;;;1999.90;999.90;;;;;;;;;;6183987;23;20089;-74
2023/10/08 12:28:25;;;;;;;1999.90;999.90;;;;;;;;;;6186059;23;20008;-71
2023/10/08 12:30:55;;;;;;;1999.90;999.90;;;;;;;;;;6184155;23;20009;-76
2023/10/08 12:33:24;;;;;;;1999.90;999.90;;;;;;;;;;6183729;23;20016;-78
2023/10/08 12:35:53;;;;;;;1999.90;999.90;;;;;;;;;;6184396;23;20107;-78
2023/10/08 12:38:22;;;;;;;1999.90;999.90;;;;;;;;;;6183915;23;20005;-74
2023/10/08 12:40:52;;;;;;;1999.90;999.90;;;;;;;;;;6183954;23;20333;-76
2023/10/08 12:43:19;;;;;;;1999.90;999.90;;;;;;;;;;6182961;23;20017;-77
2023/10/08 12:45:52;;;;;;;1999.90;999.90;;;;;;;;;;6183262;23;20473;-70
2023/10/08 12:48:21;;;;;;;1999.90;999.90;;;;;;;;;;6183921;23;20003;-78
2023/10/08 12:50:57;;;;;;;1999.90;999.90;;;;;;;;;;6183880;23;20001;-76
2023/10/08 12:53:26;;;;;;;1999.90;999.90;;;;;;;;;;6157062;23;20086;-73
2023/10/08 12:55:53;;;;;;;1999.90;999.90;;;;;;;;;;6184064;23;20016;-69
2023/10/08 12:58:23;;;;;;;1999.90;999.90;;;;;;;;;;6184634;23;20009;-78
2023/10/08 13:00:56;;;;;;;1999.90;999.90;;;;;;;;;;6184127;23;20054;-75
2023/10/08 13:03:23;;;;;;;1999.90;999.90;;;;;;;;;;6183761;23;20001;-62
2023/10/08 13:05:52;;;;;;;1999.90;999.90;;;;;;;;;;6184189;23;20001;-65
2023/10/08 13:08:19;;;;;;;1999.90;999.90;;;;;;;;;;6185131;23;20083;-75
2023/10/08 13:10:46;;;;;;;1999.90;999.90;;;;;;;;;;6156614;23;20012;-72
2023/10/08 13:13:12;;;;;;;1999.90;999.90;;;;;;;;;;6184438;23;20040;-72
2023/10/08 13:15:41;;;;;;;1999.90;999.90;;;;;;;;;;6184378;23;20083;-77
